sensor_id;sensor_type;location;lat;lon;timestamp;pressure;altitude;pressure_sealevel;temperature;humidity
45894;BME280;31603;51.148;16.932;2023-02-16T00:00:53;101004.59;;;-146.80;100.00
45894;BME280;31603;51.148;16.932;2023-02-16T00:03:25;101004.59;;;-146.80;100.00
45894;BME280;31603;51.148;16.932;2023-02-16T00:05:53;101004.59;;;-146.80;100.00
45894;BME280;31603;51.148;16.932;2023-02-16T00:08:20;101004.59;;;1.69;100.00
45894;BME280;31603;51.148;16.932;2023-02-16T00:10:48;101004.59;;;1.69;100.00
45894;BME280;31603;51.148;16.932;2023-02-16T00:13:31;101004.59;;;1.69;100.00
45894;BME280;31603;51.148;16.932;2023-02-16T00:16:14;101004.59;;;1.69;100.00
45894;BME280;31603;51.148;16.932;2023-02-16T00:18:40;101004.59;;;1.69;100.00
45894;BME280;31603;51.148;16.932;2023-02-16T00:21:10;101004.59;;;1.69;100.00
45894;BME280;31603;51.148;16.932;2023-02-16T00:23:38;101004.59;;;1.69;100.00
45894;BME280;31603;51.148;16.932;2023-02-16T00:26:12;101004.59;;;1.69;100.00
45894;BME280;31603;51.148;16.932;2023-02-16T00:28:41;101004.59;;;1.69;100.00
45894;BME280;31603;51.148;16.932;2023-02-16T00:31:15;101004.59;;;1.69;100.00
45894;BME280;31603;51.148;16.932;2023-02-16T00:33:42;101004.59;;;1.69;100.00
45894;BME280;31603;51.148;16.932;2023-02-16T00:36:08;101004.59;;;1.69;100.00
45894;BME280;31603;51.148;16.932;2023-02-16T00:38:34;101004.59;;;1.69;100.00
45894;BME280;31603;51.148;16.932;2023-02-16T00:41:02;101004.59;;;1.69;100.00
45894;BME280;31603;51.148;16.932;2023-02-16T00:43:30;101004.59;;;1.69;100.00
45894;BME280;31603;51.148;16.932;2023-02-16T00:45:58;101004.59;;;1.69;100.00
45894;BME280;31603;51.148;16.932;2023-02-16T00:48:26;101004.59;;;1.69;100.00
45894;BME280;31603;51.148;16.932;2023-02-16T00:50:52;101004.59;;;1.69;100.00
45894;BME280;31603;51.148;16.932;2023-02-16T00:53:19;101004.59;;;1.69;100.00
45894;BME280;31603;51.148;16.932;2023-02-16T00:55:46;101004.59;;;1.69;100.00
45894;BME280;31603;51.148;16.932;2023-02-16T00:58:16;101001.59;;;0.77;100.00
45894;BME280;31603;51.148;16.932;2023-02-16T01:00:48;101001.59;;;0.77;100.00
45894;BME280;31603;51.148;16.932;2023-02-16T01:03:20;101011.53;;;0.44;100.00
45894;BME280;31603;51.148;16.932;2023-02-16T01:05:48;101001.66;;;0.43;100.00
45894;BME280;31603;51.148;16.932;2023-02-16T01:08:35;101001.66;;;0.43;100.00
45894;BME280;31603;51.148;16.932;2023-02-16T01:11:19;101001.66;;;0.43;100.00
45894;BME280;31603;51.148;16.932;2023-02-16T01:13:49;101001.66;;;0.43;100.00
45894;BME280;31603;51.148;16.932;2023-02-16T01:16:19;101001.66;;;0.43;100.00
45894;BME280;31603;51.148;16.932;2023-02-16T01:18:49;101001.66;;;0.43;100.00
45894;BME280;31603;51.148;16.932;2023-02-16T01:21:16;101012.50;;;0.55;100.00
45894;BME280;31603;51.148;16.932;2023-02-16T01:23:43;101012.50;;;0.55;100.00
45894;BME280;31603;51.148;16.932;2023-02-16T01:26:13;101012.50;;;0.55;100.00
45894;BME280;31603;51.148;16.932;2023-02-16T01:28:41;101012.50;;;0.55;100.00
45894;BME280;31603;51.148;16.932;2023-02-16T01:31:09;101012.50;;;0.55;100.00
45894;BME280;31603;51.148;16.932;2023-02-16T01:33:35;101012.50;;;0.55;100.00
45894;BME280;31603;51.148;16.932;2023-02-16T01:36:03;101012.50;;;0.55;100.00
45894;BME280;31603;51.148;16.932;2023-02-16T01:38:31;101012.50;;;0.55;100.00
45894;BME280;31603;51.148;16.932;2023-02-16T01:41:03;101012.50;;;0.55;100.00
45894;BME280;31603;51.148;16.932;2023-02-16T01:43:41;101012.50;;;0.55;100.00
45894;BME280;31603;51.148;16.932;2023-02-16T01:46:13;101012.50;;;0.55;100.00
45894;BME280;31603;51.148;16.932;2023-02-16T01:48:43;101012.50;;;0.55;100.00
45894;BME280;31603;51.148;16.932;2023-02-16T01:51:15;101012.50;;;0.55;100.00
45894;BME280;31603;51.148;16.932;2023-02-16T01:53:48;100969.50;;;0.29;100.00
45894;BME280;31603;51.148;16.932;2023-02-16T01:56:27;100969.50;;;0.29;100.00
45894;BME280;31603;51.148;16.932;2023-02-16T01:59:02;100969.50;;;0.29;100.00
45894;BME280;31603;51.148;16.932;2023-02-16T02:04:20;100969.50;;;0.29;100.00
45894;BME280;31603;51.148;16.932;2023-02-16T02:07:09;100969.50;;;0.29;100.00
45894;BME280;31603;51.148;16.932;2023-02-16T02:09:46;100969.50;;;0.29;100.00
45894;BME280;31603;51.148;16.932;2023-02-16T02:12:23;100969.50;;;0.29;100.00
45894;BME280;31603;51.148;16.932;2023-02-16T02:14:53;100969.50;;;0.29;100.00
45894;BME280;31603;51.148;16.932;2023-02-16T02:17:23;100969.50;;;0.29;100.00
45894;BME280;31603;51.148;16.932;2023-02-16T02:19:58;100969.50;;;0.29;100.00
45894;BME280;31603;51.148;16.932;2023-02-16T02:22:55;100969.50;;;0.29;100.00
45894;BME280;31603;51.148;16.932;2023-02-16T02:26:05;100969.50;;;-146.80;100.00
45894;BME280;31603;51.148;16.932;2023-02-16T02:28:38;100969.50;;;0.29;100.00
45894;BME280;31603;51.148;16.932;2023-02-16T02:31:15;100969.50;;;0.29;100.00
45894;BME280;31603;51.148;16.932;2023-02-16T02:33:54;100969.50;;;0.29;100.00
45894;BME280;31603;51.148;16.932;2023-02-16T02:36:29;100969.50;;;0.29;100.00
45894;BME280;31603;51.148;16.932;2023-02-16T02:39:09;100969.50;;;0.29;100.00
45894;BME280;31603;51.148;16.932;2023-02-16T02:41:49;100969.50;;;0.29;100.00
45894;BME280;31603;51.148;16.932;2023-02-16T02:44:32;100969.50;;;0.29;100.00
45894;BME280;31603;51.148;16.932;2023-02-16T02:47:00;100969.50;;;-146.80;100.00
45894;BME280;31603;51.148;16.932;2023-02-16T02:49:29;100969.50;;;0.29;100.00
45894;BME280;31603;51.148;16.932;2023-02-16T02:51:59;100969.50;;;0.29;100.00
45894;BME280;31603;51.148;16.932;2023-02-16T02:54:30;100969.50;;;-146.80;100.00
45894;BME280;31603;51.148;16.932;2023-02-16T02:57:46;100969.50;;;0.29;100.00
45894;BME280;31603;51.148;16.932;2023-02-16T03:00:36;100969.50;;;-146.80;100.00
45894;BME280;31603;51.148;16.932;2023-02-16T03:03:10;100969.50;;;0.29;100.00
45894;BME280;31603;51.148;16.932;2023-02-16T03:05:45;100969.50;;;0.29;100.00
45894;BME280;31603;51.148;16.932;2023-02-16T03:08:16;100969.50;;;0.29;100.00
45894;BME280;31603;51.148;16.932;2023-02-16T03:10:46;100969.50;;;0.29;100.00
45894;BME280;31603;51.148;16.932;2023-02-16T03:13:35;100969.50;;;0.29;100.00
45894;BME280;31603;51.148;16.932;2023-02-16T03:16:08;100969.50;;;0.29;100.00
45894;BME280;31603;51.148;16.932;2023-02-16T03:18:37;100969.50;;;0.29;100.00
45894;BME280;31603;51.148;16.932;2023-02-16T03:21:23;100969.50;;;0.29;100.00
45894;BME280;31603;51.148;16.932;2023-02-16T03:24:11;100969.50;;;0.29;100.00
45894;BME280;31603;51.148;16.932;2023-02-16T03:26:57;100969.50;;;0.29;100.00
45894;BME280;31603;51.148;16.932;2023-02-16T03:29:42;100969.50;;;0.29;100.00
45894;BME280;31603;51.148;16.932;2023-02-16T03:32:13;100969.50;;;-146.80;100.00
45894;BME280;31603;51.148;16.932;2023-02-16T03:34:40;100969.50;;;-146.80;100.00
45894;BME280;31603;51.148;16.932;2023-02-16T03:37:07;100969.50;;;-146.80;100.00
45894;BME280;31603;51.148;16.932;2023-02-16T03:39:33;100969.50;;;-146.80;100.00
45894;BME280;31603;51.148;16.932;2023-02-16T03:42:24;100969.50;;;0.29;100.00
45894;BME280;31603;51.148;16.932;2023-02-16T03:44:51;100969.50;;;-146.80;100.00
45894;BME280;31603;51.148;16.932;2023-02-16T03:47:20;100969.50;;;-146.80;100.00
45894;BME280;31603;51.148;16.932;2023-02-16T03:49:47;100969.50;;;0.29;100.00
45894;BME280;31603;51.148;16.932;2023-02-16T03:52:13;100969.50;;;0.29;100.00
45894;BME280;31603;51.148;16.932;2023-02-16T03:54:42;100969.50;;;-146.80;100.00
45894;BME280;31603;51.148;16.932;2023-02-16T03:57:08;100969.50;;;-146.80;100.00
45894;BME280;31603;51.148;16.932;2023-02-16T03:59:35;100969.50;;;-146.80;100.00
45894;BME280;31603;51.148;16.932;2023-02-16T04:02:01;100969.50;;;-146.80;100.00
45894;BME280;31603;51.148;16.932;2023-02-16T04:04:29;100969.50;;;-146.80;100.00
45894;BME280;31603;51.148;16.932;2023-02-16T04:07:00;100969.50;;;-146.80;100.00
45894;BME280;31603;51.148;16.932;2023-02-16T04:09:27;100969.50;;;-146.80;100.00
45894;BME280;31603;51.148;16.932;2023-02-16T04:11:55;100969.50;;;-146.80;100.00
45894;BME280;31603;51.148;16.932;2023-02-16T04:14:39;78354.13;;;-146.80;100.00
45894;BME280;31603;51.148;16.932;2023-02-16T04:17:06;100969.50;;;-146.80;100.00
45894;BME280;31603;51.148;16.932;2023-02-16T04:19:47;100969.50;;;-146.80;100.00
45894;BME280;31603;51.148;16.932;2023-02-16T04:22:21;100969.50;;;-146.80;100.00
45894;BME280;31603;51.148;16.932;2023-02-16T04:24:49;100969.50;;;-146.80;100.00
45894;BME280;31603;51.148;16.932;2023-02-16T04:27:16;100969.50;;;-146.80;100.00
45894;BME280;31603;51.148;16.932;2023-02-16T04:29:42;100969.50;;;-146.80;100.00
45894;BME280;31603;51.148;16.932;2023-02-16T04:32:09;100969.50;;;-146.80;100.00
45894;BME280;31603;51.148;16.932;2023-02-16T04:34:41;78354.13;;;-146.80;100.00
45894;BME280;31603;51.148;16.932;2023-02-16T04:37:08;100969.50;;;-146.80;100.00
45894;BME280;31603;51.148;16.932;2023-02-16T04:39:35;78354.13;;;-146.80;100.00
45894;BME280;31603;51.148;16.932;2023-02-16T04:42:01;100969.50;;;-146.80;100.00
45894;BME280;31603;51.148;16.932;2023-02-16T04:44:28;78354.13;;;-146.80;100.00
45894;BME280;31603;51.148;16.932;2023-02-16T04:46:56;100969.50;;;-146.80;100.00
45894;BME280;31603;51.148;16.932;2023-02-16T04:49:23;100969.50;;;-146.80;100.00
45894;BME280;31603;51.148;16.932;2023-02-16T04:51:51;100969.50;;;0.29;100.00
45894;BME280;31603;51.148;16.932;2023-02-16T04:54:17;100969.50;;;0.29;100.00
45894;BME280;31603;51.148;16.932;2023-02-16T04:56:45;100969.50;;;-146.80;100.00
45894;BME280;31603;51.148;16.932;2023-02-16T04:59:12;100969.50;;;-146.80;100.00
45894;BME280;31603;51.148;16.932;2023-02-16T05:01:40;100969.50;;;-146.80;100.00
45894;BME280;31603;51.148;16.932;2023-02-16T05:04:06;78354.13;;;-146.80;100.00
45894;BME280;31603;51.148;16.932;2023-02-16T05:06:35;100969.50;;;-146.80;100.00
45894;BME280;31603;51.148;16.932;2023-02-16T05:09:04;100969.50;;;-146.80;100.00
45894;BME280;31603;51.148;16.932;2023-02-16T05:11:32;100969.50;;;0.29;100.00
45894;BME280;31603;51.148;16.932;2023-02-16T05:14:18;100969.50;;;-146.80;100.00
45894;BME280;31603;51.148;16.932;2023-02-16T05:17:03;100969.50;;;-146.80;100.00
45894;BME280;31603;51.148;16.932;2023-02-16T05:19:29;100969.50;;;-146.80;100.00
45894;BME280;31603;51.148;16.932;2023-02-16T05:21:56;100969.50;;;0.29;100.00
45894;BME280;31603;51.148;16.932;2023-02-16T05:24:23;100969.50;;;-146.80;100.00
45894;BME280;31603;51.148;16.932;2023-02-16T05:26:50;100969.50;;;-146.80;100.00
45894;BME280;31603;51.148;16.932;2023-02-16T05:29:16;100969.50;;;0.29;100.00
45894;BME280;31603;51.148;16.932;2023-02-16T05:31:43;100969.50;;;0.29;100.00
45894;BME280;31603;51.148;16.932;2023-02-16T05:34:11;100969.50;;;0.29;100.00
45894;BME280;31603;51.148;16.932;2023-02-16T05:36:38;100969.50;;;-146.80;100.00
45894;BME280;31603;51.148;16.932;2023-02-16T05:39:04;100969.50;;;0.29;100.00
45894;BME280;31603;51.148;16.932;2023-02-16T05:41:32;100969.50;;;0.29;100.00
45894;BME280;31603;51.148;16.932;2023-02-16T05:44:00;100969.50;;;-146.80;100.00
45894;BME280;31603;51.148;16.932;2023-02-16T05:46:28;100969.50;;;0.29;100.00
45894;BME280;31603;51.148;16.932;2023-02-16T05:48:56;100969.50;;;0.29;100.00
45894;BME280;31603;51.148;16.932;2023-02-16T05:51:23;100969.50;;;0.29;100.00
45894;BME280;31603;51.148;16.932;2023-02-16T05:53:50;100969.50;;;0.29;100.00
45894;BME280;31603;51.148;16.932;2023-02-16T05:56:17;100969.50;;;0.29;100.00
45894;BME280;31603;51.148;16.932;2023-02-16T05:58:45;100969.50;;;0.29;100.00
45894;BME280;31603;51.148;16.932;2023-02-16T06:01:11;100969.50;;;-146.80;100.00
45894;BME280;31603;51.148;16.932;2023-02-16T06:03:38;100969.50;;;-146.80;100.00
45894;BME280;31603;51.148;16.932;2023-02-16T06:06:05;100969.50;;;0.29;100.00
45894;BME280;31603;51.148;16.932;2023-02-16T06:08:32;100969.50;;;-146.80;100.00
45894;BME280;31603;51.148;16.932;2023-02-16T06:10:59;100969.50;;;0.29;100.00
45894;BME280;31603;51.148;16.932;2023-02-16T06:13:25;100969.50;;;0.29;100.00
45894;BME280;31603;51.148;16.932;2023-02-16T06:15:55;100969.50;;;0.29;100.00
45894;BME280;31603;51.148;16.932;2023-02-16T06:18:22;100969.50;;;0.29;100.00
45894;BME280;31603;51.148;16.932;2023-02-16T06:20:49;100969.50;;;-146.80;100.00
45894;BME280;31603;51.148;16.932;2023-02-16T06:23:15;100969.50;;;0.29;100.00
45894;BME280;31603;51.148;16.932;2023-02-16T06:25:44;100969.50;;;-146.80;100.00
45894;BME280;31603;51.148;16.932;2023-02-16T06:28:10;100969.50;;;-146.80;100.00
45894;BME280;31603;51.148;16.932;2023-02-16T06:30:40;100969.50;;;0.29;100.00
45894;BME280;31603;51.148;16.932;2023-02-16T06:33:08;100969.50;;;0.29;100.00
45894;BME280;31603;51.148;16.932;2023-02-16T06:35:37;100969.50;;;0.29;100.00
45894;BME280;31603;51.148;16.932;2023-02-16T06:38:04;100969.50;;;0.29;100.00
45894;BME280;31603;51.148;16.932;2023-02-16T06:40:30;100969.50;;;0.29;100.00
45894;BME280;31603;51.148;16.932;2023-02-16T06:42:58;100969.50;;;0.29;100.00
45894;BME280;31603;51.148;16.932;2023-02-16T06:45:26;100969.50;;;0.29;100.00
45894;BME280;31603;51.148;16.932;2023-02-16T06:47:52;100969.50;;;0.29;100.00
45894;BME280;31603;51.148;16.932;2023-02-16T06:50:20;100969.50;;;0.29;100.00
45894;BME280;31603;51.148;16.932;2023-02-16T06:52:47;100969.50;;;0.29;100.00
45894;BME280;31603;51.148;16.932;2023-02-16T06:55:13;100969.50;;;0.29;100.00
45894;BME280;31603;51.148;16.932;2023-02-16T06:57:39;100969.50;;;0.29;100.00
45894;BME280;31603;51.148;16.932;2023-02-16T07:00:07;100969.50;;;0.29;100.00
45894;BME280;31603;51.148;16.932;2023-02-16T07:02:34;100969.50;;;0.29;100.00
45894;BME280;31603;51.148;16.932;2023-02-16T07:05:01;100969.50;;;0.29;100.00
45894;BME280;31603;51.148;16.932;2023-02-16T07:07:29;100969.50;;;0.29;100.00
45894;BME280;31603;51.148;16.932;2023-02-16T07:09:56;100969.50;;;0.29;100.00
45894;BME280;31603;51.148;16.932;2023-02-16T07:12:22;100969.50;;;0.29;100.00
45894;BME280;31603;51.148;16.932;2023-02-16T07:14:49;100969.50;;;0.29;100.00
45894;BME280;31603;51.148;16.932;2023-02-16T07:17:18;100969.50;;;0.29;100.00
45894;BME280;31603;51.148;16.932;2023-02-16T07:19:46;100969.50;;;0.29;100.00
45894;BME280;31603;51.148;16.932;2023-02-16T07:22:12;100969.50;;;0.29;100.00
45894;BME280;31603;51.148;16.932;2023-02-16T07:24:40;100969.50;;;0.29;100.00
45894;BME280;31603;51.148;16.932;2023-02-16T07:27:07;100969.50;;;0.29;100.00
45894;BME280;31603;51.148;16.932;2023-02-16T07:29:33;100969.50;;;0.29;100.00
45894;BME280;31603;51.148;16.932;2023-02-16T07:32:01;100969.50;;;0.29;100.00
45894;BME280;31603;51.148;16.932;2023-02-16T07:34:27;100969.50;;;0.29;100.00
45894;BME280;31603;51.148;16.932;2023-02-16T07:36:54;100969.50;;;0.29;100.00
45894;BME280;31603;51.148;16.932;2023-02-16T07:39:20;100969.50;;;0.29;100.00
45894;BME280;31603;51.148;16.932;2023-02-16T07:41:48;100969.50;;;0.29;100.00
45894;BME280;31603;51.148;16.932;2023-02-16T07:44:14;100943.22;;;2.68;100.00
45894;BME280;31603;51.148;16.932;2023-02-16T07:46:41;100944.38;;;2.56;100.00
45894;BME280;31603;51.148;16.932;2023-02-16T07:49:08;100931.09;;;3.11;100.00
45894;BME280;31603;51.148;16.932;2023-02-16T07:51:34;100942.31;;;3.55;100.00
45894;BME280;31603;51.148;16.932;2023-02-16T07:54:01;100935.06;;;3.46;100.00
45894;BME280;31603;51.148;16.932;2023-02-16T07:56:35;100934.09;;;2.88;100.00
45894;BME280;31603;51.148;16.932;2023-02-16T07:59:03;100936.09;;;3.25;100.00
45894;BME280;31603;51.148;16.932;2023-02-16T08:01:30;100934.09;;;2.88;100.00
45894;BME280;31603;51.148;16.932;2023-02-16T08:03:57;100934.09;;;2.88;100.00
45894;BME280;31603;51.148;16.932;2023-02-16T08:06:23;100933.75;;;3.40;100.00
45894;BME280;31603;51.148;16.932;2023-02-16T08:08:50;100933.75;;;3.40;100.00
45894;BME280;31603;51.148;16.932;2023-02-16T08:11:20;100933.75;;;3.40;100.00
45894;BME280;31603;51.148;16.932;2023-02-16T08:13:47;100920.06;;;3.22;100.00
45894;BME280;31603;51.148;16.932;2023-02-16T08:16:16;100920.06;;;3.22;100.00
45894;BME280;31603;51.148;16.932;2023-02-16T08:18:45;100920.06;;;3.22;100.00
45894;BME280;31603;51.148;16.932;2023-02-16T08:21:13;100920.06;;;3.22;100.00
45894;BME280;31603;51.148;16.932;2023-02-16T08:23:42;100920.06;;;3.22;100.00
45894;BME280;31603;51.148;16.932;2023-02-16T08:26:13;100922.03;;;4.42;100.00
45894;BME280;31603;51.148;16.932;2023-02-16T08:28:41;100919.59;;;4.39;100.00
45894;BME280;31603;51.148;16.932;2023-02-16T08:31:10;100919.59;;;4.39;100.00
45894;BME280;31603;51.148;16.932;2023-02-16T08:33:39;100920.44;;;5.02;100.00
45894;BME280;31603;51.148;16.932;2023-02-16T08:36:06;100922.09;;;5.39;100.00
45894;BME280;31603;51.148;16.932;2023-02-16T08:38:33;100920.41;;;5.98;100.00
45894;BME280;31603;51.148;16.932;2023-02-16T08:41:00;100919.66;;;6.14;100.00
45894;BME280;31603;51.148;16.932;2023-02-16T08:43:27;100920.41;;;5.98;100.00
45894;BME280;31603;51.148;16.932;2023-02-16T08:45:53;100923.25;;;6.23;100.00
45894;BME280;31603;51.148;16.932;2023-02-16T08:48:19;100927.69;;;6.74;100.00
45894;BME280;31603;51.148;16.932;2023-02-16T08:50:49;100914.66;;;6.52;100.00
45894;BME280;31603;51.148;16.932;2023-02-16T08:53:18;100919.78;;;6.47;100.00
45894;BME280;31603;51.148;16.932;2023-02-16T08:55:50;100922.91;;;6.85;100.00
45894;BME280;31603;51.148;16.932;2023-02-16T08:58:16;100929.75;;;6.72;100.00
45894;BME280;31603;51.148;16.932;2023-02-16T09:00:43;100916.44;;;6.27;100.00
45894;BME280;31603;51.148;16.932;2023-02-16T09:03:10;100922.19;;;6.50;100.00
45894;BME280;31603;51.148;16.932;2023-02-16T09:05:40;100917.25;;;6.70;100.00
45894;BME280;31603;51.148;16.932;2023-02-16T09:08:08;100922.06;;;6.92;100.00
45894;BME280;31603;51.148;16.932;2023-02-16T09:10:35;100929.06;;;6.79;100.00
45894;BME280;31603;51.148;16.932;2023-02-16T09:13:02;100919.84;;;6.96;100.00
45894;BME280;31603;51.148;16.932;2023-02-16T09:15:28;100921.22;;;6.84;100.00
45894;BME280;31603;51.148;16.932;2023-02-16T09:17:55;100928.56;;;7.40;100.00
45894;BME280;31603;51.148;16.932;2023-02-16T09:20:22;100927.66;;;7.89;100.00
45894;BME280;31603;51.148;16.932;2023-02-16T09:22:48;100929.09;;;7.44;100.00
45894;BME280;31603;51.148;16.932;2023-02-16T09:25:21;100939.34;;;7.66;100.00
45894;BME280;31603;51.148;16.932;2023-02-16T09:27:49;100933.66;;;7.76;100.00
45894;BME280;31603;51.148;16.932;2023-02-16T09:30:17;100926.69;;;7.57;100.00
45894;BME280;31603;51.148;16.932;2023-02-16T09:32:46;100915.59;;;8.14;100.00
45894;BME280;31603;51.148;16.932;2023-02-16T09:35:12;100923.03;;;7.89;100.00
45894;BME280;31603;51.148;16.932;2023-02-16T09:37:40;100921.31;;;7.88;100.00
45894;BME280;31603;51.148;16.932;2023-02-16T09:40:09;100917.47;;;8.06;100.00
45894;BME280;31603;51.148;16.932;2023-02-16T09:42:49;100920.53;;;8.58;100.00
45894;BME280;31603;51.148;16.932;2023-02-16T09:45:19;100921.06;;;8.85;100.00
45894;BME280;31603;51.148;16.932;2023-02-16T09:47:48;100918.06;;;9.18;100.00
45894;BME280;31603;51.148;16.932;2023-02-16T09:50:19;100920.81;;;8.72;100.00
45894;BME280;31603;51.148;16.932;2023-02-16T09:52:54;100921.34;;;9.36;100.00
45894;BME280;31603;51.148;16.932;2023-02-16T09:55:31;100926.81;;;8.98;100.00
45894;BME280;31603;51.148;16.932;2023-02-16T09:58:06;100924.47;;;8.87;100.00
45894;BME280;31603;51.148;16.932;2023-02-16T10:00:46;100920.69;;;9.11;100.00
45894;BME280;31603;51.148;16.932;2023-02-16T10:03:34;100917.53;;;9.75;100.00
45894;BME280;31603;51.148;16.932;2023-02-16T10:06:21;100911.31;;;10.10;93.04
45894;BME280;31603;51.148;16.932;2023-02-16T10:08:55;100914.34;;;9.33;100.00
45894;BME280;31603;51.148;16.932;2023-02-16T10:11:26;100921.72;;;9.33;97.92
45894;BME280;31603;51.148;16.932;2023-02-16T10:14:15;100928.16;;;9.40;96.82
45894;BME280;31603;51.148;16.932;2023-02-16T10:16:51;100906.28;;;9.70;92.43
45894;BME280;31603;51.148;16.932;2023-02-16T10:19:22;100921.34;;;9.74;92.95
45894;BME280;31603;51.148;16.932;2023-02-16T10:21:54;100918.59;;;10.03;90.49
45894;BME280;31603;51.148;16.932;2023-02-16T10:24:26;100922.06;;;9.15;94.59
45894;BME280;31603;51.148;16.932;2023-02-16T10:27:01;100928.88;;;9.57;92.61
45894;BME280;31603;51.148;16.932;2023-02-16T10:29:29;100929.38;;;9.23;93.79
45894;BME280;31603;51.148;16.932;2023-02-16T10:32:04;100934.63;;;9.47;92.85
45894;BME280;31603;51.148;16.932;2023-02-16T10:34:46;100928.16;;;10.22;90.29
45894;BME280;31603;51.148;16.932;2023-02-16T10:37:20;100919.88;;;9.48;91.01
45894;BME280;31603;51.148;16.932;2023-02-16T10:39:54;100923.69;;;9.24;91.18
45894;BME280;31603;51.148;16.932;2023-02-16T10:42:36;100917.41;;;9.53;90.61
45894;BME280;31603;51.148;16.932;2023-02-16T10:45:18;100922.16;;;9.59;90.89
45894;BME280;31603;51.148;16.932;2023-02-16T10:47:45;100910.09;;;10.28;89.16
45894;BME280;31603;51.148;16.932;2023-02-16T10:50:19;100901.88;;;10.49;84.89
45894;BME280;31603;51.148;16.932;2023-02-16T10:52:47;100909.22;;;10.42;86.06
45894;BME280;31603;51.148;16.932;2023-02-16T10:55:14;100908.94;;;10.07;87.94
45894;BME280;31603;51.148;16.932;2023-02-16T10:57:41;100907.25;;;10.36;86.84
45894;BME280;31603;51.148;16.932;2023-02-16T11:00:12;100896.25;;;10.06;86.69
45894;BME280;31603;51.148;16.932;2023-02-16T11:02:43;100909.84;;;9.55;91.26
45894;BME280;31603;51.148;16.932;2023-02-16T11:05:33;100906.72;;;9.58;93.66
45894;BME280;31603;51.148;16.932;2023-02-16T11:08:03;100893.03;;;9.88;92.66
45894;BME280;31603;51.148;16.932;2023-02-16T11:10:37;100895.09;;;9.86;96.32
45894;BME280;31603;51.148;16.932;2023-02-16T11:13:05;100896.72;;;9.95;93.40
45894;BME280;31603;51.148;16.932;2023-02-16T11:15:40;100902.88;;;9.97;93.20
45894;BME280;31603;51.148;16.932;2023-02-16T11:18:19;100912.16;;;9.67;94.11
45894;BME280;31603;51.148;16.932;2023-02-16T11:20:53;100898.31;;;10.34;93.71
45894;BME280;31603;51.148;16.932;2023-02-16T11:23:21;100899.13;;;11.07;87.88
45894;BME280;31603;51.148;16.932;2023-02-16T11:25:55;100897.25;;;11.07;86.40
45894;BME280;31603;51.148;16.932;2023-02-16T11:28:29;100897.72;;;10.53;87.97
45894;BME280;31603;51.148;16.932;2023-02-16T11:31:08;100895.28;;;10.80;87.10
45894;BME280;31603;51.148;16.932;2023-02-16T11:33:37;100903.78;;;12.12;79.05
45894;BME280;31603;51.148;16.932;2023-02-16T11:36:17;100896.84;;;10.89;82.83
45894;BME280;31603;51.148;16.932;2023-02-16T11:38:55;100895.25;;;11.72;82.18
45894;BME280;31603;51.148;16.932;2023-02-16T11:41:23;100900.63;;;12.57;78.34
45894;BME280;31603;51.148;16.932;2023-02-16T11:43:53;100897.50;;;11.34;79.11
45894;BME280;31603;51.148;16.932;2023-02-16T11:46:23;100895.91;;;11.74;81.02
45894;BME280;31603;51.148;16.932;2023-02-16T11:59:06;100890.94;;;10.92;89.16
45894;BME280;31603;51.148;16.932;2023-02-16T12:01:48;100889.25;;;11.90;84.37
45894;BME280;31603;51.148;16.932;2023-02-16T12:04:29;100875.97;;;11.44;87.27
45894;BME280;31603;51.148;16.932;2023-02-16T12:07:07;100881.03;;;12.45;82.72
45894;BME280;31603;51.148;16.932;2023-02-16T12:09:44;100877.59;;;12.97;77.94
45894;BME280;31603;51.148;16.932;2023-02-16T12:12:16;100875.59;;;12.65;76.18
45894;BME280;31603;51.148;16.932;2023-02-16T12:14:52;100880.00;;;12.46;77.49
45894;BME280;31603;51.148;16.932;2023-02-16T12:17:33;100878.56;;;12.70;79.91
45894;BME280;31603;51.148;16.932;2023-02-16T12:20:17;100867.50;;;12.09;80.69
45894;BME280;31603;51.148;16.932;2023-02-16T12:22:48;100878.97;;;12.67;79.36
45894;BME280;31603;51.148;16.932;2023-02-16T12:25:26;100868.84;;;12.87;76.95
45894;BME280;31603;51.148;16.932;2023-02-16T12:28:04;100874.97;;;12.15;79.48
45894;BME280;31603;51.148;16.932;2023-02-16T12:30:48;100858.16;;;11.40;85.18
45894;BME280;31603;51.148;16.932;2023-02-16T12:33:28;100861.50;;;11.92;80.53
45894;BME280;31603;51.148;16.932;2023-02-16T12:36:10;100855.41;;;11.47;85.15
45894;BME280;31603;51.148;16.932;2023-02-16T12:38:49;100860.28;;;11.17;86.71
45894;BME280;31603;51.148;16.932;2023-02-16T12:41:27;100859.56;;;11.08;84.93
45894;BME280;31603;51.148;16.932;2023-02-16T12:44:01;100857.81;;;11.00;84.07
45894;BME280;31603;51.148;16.932;2023-02-16T12:46:35;100850.00;;;11.04;81.82
45894;BME280;31603;51.148;16.932;2023-02-16T12:49:12;100858.50;;;10.66;83.93
45894;BME280;31603;51.148;16.932;2023-02-16T12:51:44;100852.16;;;10.66;84.06
45894;BME280;31603;51.148;16.932;2023-02-16T12:54:16;100851.34;;;11.15;83.19
45894;BME280;31603;51.148;16.932;2023-02-16T12:56:48;100840.06;;;10.45;86.65
45894;BME280;31603;51.148;16.932;2023-02-16T12:59:20;100845.22;;;10.91;84.36
45894;BME280;31603;51.148;16.932;2023-02-16T13:01:51;100833.81;;;10.94;82.60
45894;BME280;31603;51.148;16.932;2023-02-16T13:04:25;100830.09;;;11.30;83.02
45894;BME280;31603;51.148;16.932;2023-02-16T13:06:56;100834.81;;;11.99;79.35
45894;BME280;31603;51.148;16.932;2023-02-16T13:09:35;100823.19;;;12.10;76.83